createdAt,value
2022-08-08T00:01:18.339Z,15.42
2022-08-08T00:04:07.974Z,15.30
2022-08-08T00:06:49.979Z,15.32
2022-08-08T00:09:16.956Z,15.27
2022-08-08T00:12:09.567Z,15.11
2022-08-08T00:14:59.331Z,15.06
2022-08-08T00:17:48.227Z,14.93
2022-08-08T00:20:32.626Z,14.86
2022-08-08T00:23:15.002Z,14.84
2022-08-08T00:25:46.261Z,14.82
2022-08-08T00:28:35.828Z,14.79
2022-08-08T00:32:20.874Z,14.80
2022-08-08T00:34:20.321Z,14.78
2022-08-08T00:37:03.692Z,14.76
2022-08-08T00:41:08.977Z,14.72
2022-08-08T00:42:44.226Z,14.52
2022-08-08T00:45:38.754Z,14.50
2022-08-08T00:48:33.677Z,14.44
2022-08-08T00:51:09.783Z,14.51
2022-08-08T00:54:15.929Z,14.64
2022-08-08T00:57:01.679Z,14.57
2022-08-08T01:00:05.130Z,14.50
2022-08-08T01:04:01.821Z,14.45
2022-08-08T01:06:16.264Z,14.50
2022-08-08T01:09:35.940Z,14.49
2022-08-08T01:12:29.538Z,14.49
2022-08-08T01:15:54.365Z,14.51
2022-08-08T01:18:25.338Z,14.43
2022-08-08T01:22:03.682Z,14.37
2022-08-08T01:24:35.483Z,14.32
2022-08-08T01:27:21.216Z,14.30
2022-08-08T01:30:09.140Z,14.16
2022-08-08T01:33:27.912Z,14.08
2022-08-08T01:36:32.558Z,13.99
2022-08-08T01:39:05.182Z,14.05
2022-08-08T01:41:34.236Z,14.03
2022-08-08T01:44:18.860Z,14.02
2022-08-08T01:46:57.593Z,14.05
2022-08-08T01:49:40.727Z,14.04
2022-08-08T01:52:49.813Z,14.04
2022-08-08T01:56:27.795Z,14.13
2022-08-08T01:58:39.581Z,14.11
2022-08-08T02:02:00.109Z,14.00
2022-08-08T02:04:43.371Z,13.86
2022-08-08T02:07:19.364Z,13.80
2022-08-08T02:10:30.242Z,13.72
2022-08-08T02:13:53.194Z,13.61
2022-08-08T02:16:09.326Z,13.65
2022-08-08T02:18:59.504Z,13.60
2022-08-08T02:21:45.330Z,13.61
2022-08-08T02:24:22.782Z,13.50
2022-08-08T02:26:58.092Z,13.50
2022-08-08T02:30:04.371Z,13.40
2022-08-08T02:33:00.890Z,13.32
2022-08-08T02:36:03.991Z,13.21
2022-08-08T02:38:49.182Z,13.23
2022-08-08T02:42:03.726Z,13.17
2022-08-08T02:44:57.283Z,13.27
2022-08-08T02:48:03.057Z,13.29
2022-08-08T02:51:05.447Z,13.33
2022-08-08T02:54:18.978Z,13.35
2022-08-08T02:57:12.380Z,13.32
2022-08-08T03:00:30.938Z,13.25
2022-08-08T03:05:01.115Z,13.19
2022-08-08T03:06:41.838Z,13.07
2022-08-08T03:09:41.382Z,12.95
2022-08-08T03:12:36.431Z,12.81
2022-08-08T03:15:59.704Z,12.77
2022-08-08T03:19:02.370Z,12.68
2022-08-08T03:21:54.502Z,12.67
2022-08-08T03:24:23.580Z,12.85
2022-08-08T03:27:11.001Z,12.89
2022-08-08T03:29:55.064Z,12.88
2022-08-08T03:32:23.848Z,12.91
2022-08-08T03:34:56.947Z,12.96
2022-08-08T03:38:54.462Z,12.88
2022-08-08T03:40:30.291Z,12.90
2022-08-08T03:42:58.373Z,12.84
2022-08-08T03:46:05.979Z,12.82
2022-08-08T03:49:09.799Z,12.81
2022-08-08T03:51:19.326Z,12.72
2022-08-08T03:53:54.895Z,13.36
2022-08-08T03:56:31.541Z,13.78
2022-08-08T03:58:59.395Z,14.17
2022-08-08T04:02:22.832Z,14.08
2022-08-08T04:04:30.437Z,14.01
2022-08-08T04:07:01.278Z,13.82
2022-08-08T04:09:58.797Z,13.80
2022-08-08T04:12:16.701Z,13.76
2022-08-08T04:14:45.489Z,13.88
2022-08-08T04:17:15.550Z,13.94
2022-08-08T04:19:59.381Z,14.26
2022-08-08T04:22:29.938Z,14.20
2022-08-08T04:24:56.754Z,14.01
2022-08-08T04:28:03.327Z,14.12
2022-08-08T04:30:18.032Z,13.68
2022-08-08T04:32:48.237Z,13.70
2022-08-08T04:35:17.792Z,13.89
2022-08-08T04:37:46.912Z,13.76
2022-08-08T04:40:17.742Z,13.95
2022-08-08T04:42:56.099Z,13.46
2022-08-08T04:45:28.046Z,13.26
2022-08-08T04:47:55.258Z,13.25
2022-08-08T04:50:24.247Z,12.92
2022-08-08T04:53:00.662Z,12.85
2022-08-08T04:55:37.902Z,12.82
2022-08-08T04:58:18.504Z,12.94
2022-08-08T05:00:48.421Z,12.93
2022-08-08T05:03:19.015Z,13.00
2022-08-08T05:06:12.596Z,13.30
2022-08-08T05:08:45.459Z,13.69
2022-08-08T05:11:12.049Z,14.65
2022-08-08T05:13:58.008Z,15.21
2022-08-08T05:16:54.650Z,15.28
2022-08-08T05:20:12.278Z,14.76
2022-08-08T05:22:05.623Z,14.57
2022-08-08T05:24:33.834Z,14.30
2022-08-08T05:27:00.751Z,14.41
2022-08-08T05:29:29.143Z,14.29
2022-08-08T05:32:04.165Z,14.20
2022-08-08T05:34:41.708Z,14.21
2022-08-08T05:37:17.102Z,14.49
2022-08-08T05:39:55.335Z,14.73
2022-08-08T05:42:37.913Z,14.59
2022-08-08T05:45:10.222Z,14.68
2022-08-08T05:48:00.116Z,14.61
2022-08-08T05:50:33.524Z,14.91
2022-08-08T05:53:54.441Z,15.01
2022-08-08T05:56:11.576Z,15.08
2022-08-08T05:58:57.618Z,15.26
2022-08-08T06:01:51.186Z,15.35
2022-08-08T06:04:22.459Z,15.33
2022-08-08T06:06:52.707Z,15.39
2022-08-08T06:09:58.164Z,15.59
2022-08-08T06:12:18.677Z,15.73
2022-08-08T06:15:01.119Z,15.87
2022-08-08T06:18:18.109Z,15.91
2022-08-08T06:20:19.662Z,16.01
2022-08-08T06:22:50.032Z,16.00
2022-08-08T06:25:17.995Z,16.08
2022-08-08T06:27:54.193Z,16.15
2022-08-08T06:30:28.596Z,16.30
2022-08-08T06:32:58.130Z,16.72
2022-08-08T06:36:04.442Z,17.00
2022-08-08T06:38:25.056Z,17.13
2022-08-08T06:41:05.324Z,17.35
2022-08-08T06:43:36.145Z,17.53
2022-08-08T06:46:04.675Z,17.41
2022-08-08T06:48:36.382Z,17.73
2022-08-08T06:51:08.429Z,17.95
2022-08-08T06:53:39.904Z,18.25
2022-08-08T06:56:07.911Z,18.15
2022-08-08T06:58:35.414Z,18.22
2022-08-08T07:01:24.422Z,18.42
2022-08-08T07:04:41.592Z,18.71
2022-08-08T07:06:55.469Z,18.88
2022-08-08T07:09:41.760Z,18.77
2022-08-08T07:12:48.476Z,18.90
2022-08-08T07:15:31.808Z,18.99
2022-08-08T07:18:36.813Z,19.10
2022-08-08T07:21:04.899Z,19.51
2022-08-08T07:24:01.818Z,19.93
2022-08-08T07:26:32.779Z,19.75
2022-08-08T07:29:05.839Z,20.05
2022-08-08T07:31:38.591Z,20.09
2022-08-08T07:34:08.741Z,20.32
2022-08-08T07:36:37.269Z,20.67
2022-08-08T07:39:10.865Z,20.89
2022-08-08T07:42:03.816Z,20.59
2022-08-08T07:44:37.650Z,20.81
2022-08-08T07:47:08.947Z,21.09
2022-08-08T07:49:37.019Z,21.31
2022-08-08T07:52:13.465Z,21.63
2022-08-08T07:54:59.042Z,21.63
2022-08-08T07:58:06.671Z,22.04
2022-08-08T08:01:04.633Z,22.45
2022-08-08T08:04:13.703Z,22.81
2022-08-08T08:06:41.755Z,22.95
2022-08-08T08:09:18.808Z,22.69
2022-08-08T08:11:52.774Z,22.87
2022-08-08T08:14:36.439Z,23.57
2022-08-08T08:17:03.044Z,23.71
2022-08-08T08:19:45.517Z,23.97
2022-08-08T08:22:12.971Z,23.62
2022-08-08T08:24:46.960Z,23.94
2022-08-08T08:27:13.522Z,23.91
2022-08-08T08:29:42.248Z,23.80
2022-08-08T08:32:09.280Z,23.97
2022-08-08T08:34:38.025Z,24.09
2022-08-08T08:37:10.236Z,24.18
2022-08-08T08:40:00.096Z,24.24
2022-08-08T08:42:29.480Z,24.69
2022-08-08T08:45:22.048Z,24.63
2022-08-08T08:47:54.717Z,24.80
2022-08-08T08:50:33.770Z,25.30
2022-08-08T08:53:27.374Z,25.13
2022-08-08T08:56:02.484Z,25.37
2022-08-08T08:58:56.474Z,25.34
2022-08-08T09:01:28.334Z,25.16
2022-08-08T09:04:01.445Z,25.52
2022-08-08T09:06:34.222Z,25.29
2022-08-08T09:09:26.606Z,25.56
2022-08-08T09:12:07.510Z,25.67
2022-08-08T09:14:42.487Z,26.10
2022-08-08T09:17:17.433Z,26.59
2022-08-08T09:21:58.263Z,26.69
2022-08-08T09:22:34.946Z,26.44
2022-08-08T09:25:05.380Z,26.51
2022-08-08T09:27:42.035Z,26.74
2022-08-08T09:30:23.157Z,26.36
2022-08-08T09:33:13.085Z,26.67
2022-08-08T09:35:50.498Z,26.60
2022-08-08T09:38:35.034Z,26.97
2022-08-08T09:42:14.200Z,27.48
2022-08-08T09:44:55.400Z,27.58
2022-08-08T09:48:02.997Z,27.21
2022-08-08T09:50:15.097Z,27.10
2022-08-08T09:53:00.287Z,27.24
2022-08-08T09:56:02.771Z,27.60
2022-08-08T09:58:27.985Z,27.40
2022-08-08T10:01:15.392Z,28.09
2022-08-08T10:04:01.872Z,28.27
2022-08-08T10:06:32.335Z,27.69
2022-08-08T10:08:59.935Z,27.79
2022-08-08T10:12:28.026Z,27.64
2022-08-08T10:14:28.065Z,27.82
2022-08-08T10:17:38.692Z,27.87
2022-08-08T10:19:57.870Z,27.84
2022-08-08T10:22:26.961Z,27.63
2022-08-08T10:25:05.657Z,28.22
2022-08-08T10:27:44.546Z,27.45
2022-08-08T10:30:16.250Z,26.97
2022-08-08T10:33:00.761Z,26.47
2022-08-08T10:36:08.765Z,26.81
2022-08-08T10:38:20.979Z,26.53
2022-08-08T10:40:53.363Z,27.03
2022-08-08T10:43:23.017Z,27.18
2022-08-08T10:45:56.800Z,27.15
2022-08-08T10:48:37.231Z,27.18
2022-08-08T10:51:14.014Z,28.10
2022-08-08T10:53:57.813Z,27.37
2022-08-08T10:56:32.315Z,28.49
2022-08-08T10:59:04.068Z,28.67
2022-08-08T11:01:33.363Z,28.80
2022-08-08T11:04:02.344Z,28.87
2022-08-08T11:06:34.115Z,28.55
2022-08-08T11:09:02.614Z,27.81
2022-08-08T11:12:04.906Z,28.28
2022-08-08T11:14:33.832Z,27.78
2022-08-08T11:17:03.137Z,27.90
2022-08-08T11:19:33.704Z,27.62
2022-08-08T11:22:03.917Z,27.84
2022-08-08T11:24:35.790Z,27.88
2022-08-08T11:27:19.874Z,27.81
2022-08-08T11:30:04.521Z,27.79
2022-08-08T11:32:47.491Z,28.33
2022-08-08T11:35:27.201Z,28.09
2022-08-08T11:38:36.497Z,28.50
2022-08-08T11:40:51.876Z,28.09
2022-08-08T11:43:21.774Z,28.66
2022-08-08T11:46:09.798Z,28.21
2022-08-08T11:48:41.189Z,27.28
2022-08-08T11:51:38.750Z,28.15
2022-08-08T11:54:01.073Z,28.33
2022-08-08T11:56:34.548Z,28.54
2022-08-08T11:59:12.916Z,28.92
2022-08-08T12:01:39.549Z,28.59
2022-08-08T12:04:09.252Z,28.66
2022-08-08T12:06:36.759Z,28.84
2022-08-08T12:09:09.655Z,28.81
2022-08-08T12:11:44.281Z,29.09
2022-08-08T12:14:23.316Z,28.54
2022-08-08T12:16:51.408Z,28.17
2022-08-08T12:19:31.142Z,28.36
2022-08-08T12:22:09.422Z,28.72
2022-08-08T12:24:51.473Z,28.78
2022-08-08T12:27:22.530Z,29.03
2022-08-08T12:29:59.159Z,28.57
2022-08-08T12:32:26.083Z,28.90
2022-08-08T12:35:16.780Z,28.90
2022-08-08T12:37:48.096Z,28.65
2022-08-08T12:40:56.337Z,28.61
2022-08-08T12:43:47.532Z,28.92
2022-08-08T12:46:24.943Z,28.64
2022-08-08T12:51:49.920Z,29.43
2022-08-08T12:54:36.088Z,29.04
2022-08-08T12:57:23.389Z,29.31
2022-08-08T13:00:04.157Z,29.21
2022-08-08T13:02:37.012Z,29.26
2022-08-08T13:05:15.628Z,29.09
2022-08-08T13:08:04.127Z,28.74
2022-08-08T13:10:33.010Z,28.91
2022-08-08T13:13:08.066Z,28.77
2022-08-08T13:15:35.866Z,28.65
2022-08-08T13:18:11.494Z,28.90
2022-08-08T13:20:48.792Z,29.26
2022-08-08T13:23:36.481Z,29.35
2022-08-08T13:26:13.297Z,29.13
2022-08-08T13:28:42.786Z,29.23
2022-08-08T13:31:16.672Z,28.94
2022-08-08T13:33:47.319Z,28.83
2022-08-08T13:36:26.005Z,28.69
2022-08-08T13:38:53.658Z,28.97
2022-08-08T13:41:21.848Z,28.86
2022-08-08T13:43:51.192Z,29.18
2022-08-08T13:46:26.399Z,29.08
2022-08-08T13:49:11.193Z,29.40
2022-08-08T13:51:41.802Z,29.06
2022-08-08T13:54:21.592Z,29.17
2022-08-08T13:57:11.260Z,29.41
2022-08-08T13:59:49.178Z,29.74
2022-08-08T14:02:30.946Z,29.15
2022-08-08T14:05:20.252Z,28.93
2022-08-08T14:07:52.440Z,28.93
2022-08-08T14:10:33.066Z,29.14
2022-08-08T14:13:05.678Z,29.18
2022-08-08T14:15:39.627Z,28.89
2022-08-08T14:18:35.602Z,28.92
2022-08-08T14:21:07.896Z,29.02
2022-08-08T14:24:06.679Z,28.97
2022-08-08T14:26:33.593Z,29.20
2022-08-08T14:29:00.545Z,28.85
2022-08-08T14:32:06.051Z,28.89
2022-08-08T14:34:23.154Z,29.08
2022-08-08T14:36:54.743Z,29.20
2022-08-08T14:39:25.006Z,29.30
2022-08-08T14:42:09.427Z,28.76
2022-08-08T14:44:39.504Z,28.58
2022-08-08T14:47:15.347Z,28.70
2022-08-08T14:50:06.685Z,28.99
2022-08-08T14:52:44.648Z,29.04
2022-08-08T14:55:13.405Z,28.94
2022-08-08T14:58:00.941Z,28.94
2022-08-08T15:00:28.498Z,29.52
2022-08-08T15:02:59.152Z,29.48
2022-08-08T15:05:45.338Z,29.33
2022-08-08T15:08:35.283Z,29.04
2022-08-08T15:11:10.513Z,28.76
2022-08-08T15:14:00.985Z,28.77
2022-08-08T15:16:34.604Z,28.71
2022-08-08T15:19:01.950Z,28.77
2022-08-08T15:21:30.259Z,28.83
2022-08-08T15:23:57.192Z,28.82
2022-08-08T15:26:25.689Z,28.84
2022-08-08T15:28:54.604Z,28.37
2022-08-08T15:31:55.651Z,28.58
2022-08-08T15:34:28.888Z,28.57
2022-08-08T15:37:02.284Z,28.39
2022-08-08T15:39:37.434Z,28.78
2022-08-08T15:42:07.051Z,28.69
2022-08-08T15:44:38.518Z,28.83
2022-08-08T15:47:05.700Z,28.77
2022-08-08T15:49:32.279Z,28.57
2022-08-08T15:52:10.918Z,28.49
2022-08-08T15:54:40.511Z,28.61
2022-08-08T15:57:09.038Z,28.77
2022-08-08T16:00:05.426Z,28.76
2022-08-08T16:02:30.575Z,28.77
2022-08-08T16:04:58.887Z,28.63
2022-08-08T16:07:51.464Z,28.29
2022-08-08T16:13:05.263Z,28.42
2022-08-08T16:13:29.193Z,28.33
2022-08-08T16:15:57.141Z,28.50
2022-08-08T16:18:26.306Z,28.47
2022-08-08T16:20:52.937Z,28.32
2022-08-08T16:23:19.535Z,28.34
2022-08-08T16:25:54.460Z,28.49
2022-08-08T16:28:34.832Z,28.44
2022-08-08T16:31:06.427Z,28.43
2022-08-08T16:33:39.096Z,28.42
2022-08-08T16:36:15.864Z,28.50
2022-08-08T16:38:47.588Z,28.31
2022-08-08T16:41:22.472Z,28.11
2022-08-08T16:43:52.239Z,28.27
2022-08-08T16:46:37.434Z,28.20
2022-08-08T16:49:08.831Z,28.42
2022-08-08T16:55:02.065Z,28.45
2022-08-08T16:55:05.580Z,28.60
2022-08-08T16:57:22.987Z,28.59
2022-08-08T16:59:59.472Z,28.22
2022-08-08T17:02:32.554Z,28.23
2022-08-08T17:05:13.942Z,28.60
2022-08-08T17:07:50.641Z,28.48
2022-08-08T17:10:19.268Z,28.29
2022-08-08T17:12:53.138Z,28.29
2022-08-08T17:15:23.106Z,28.46
2022-08-08T17:18:02.847Z,28.43
2022-08-08T17:20:39.548Z,28.49
2022-08-08T17:23:18.502Z,28.50
2022-08-08T17:25:57.510Z,28.44
2022-08-08T17:28:35.343Z,28.35
2022-08-08T17:31:39.569Z,28.21
2022-08-08T17:34:54.367Z,28.00
2022-08-08T17:37:03.519Z,27.79
2022-08-08T17:40:05.067Z,27.82
2022-08-08T17:42:20.676Z,27.78
2022-08-08T17:44:49.983Z,27.81
2022-08-08T17:47:24.039Z,27.89
2022-08-08T17:50:01.214Z,27.88
2022-08-08T17:52:35.645Z,28.07
2022-08-08T17:56:03.266Z,28.36
2022-08-08T17:57:53.040Z,28.08
2022-08-08T18:00:26.021Z,28.16
2022-08-08T18:03:08.347Z,28.08
2022-08-08T18:05:44.091Z,27.68
2022-08-08T18:08:37.734Z,27.92
2022-08-08T18:11:06.810Z,28.23
2022-08-08T18:13:41.458Z,27.82
2022-08-08T18:16:08.984Z,27.63
2022-08-08T18:18:42.985Z,27.20
2022-08-08T18:21:34.429Z,26.88
2022-08-08T18:24:01.867Z,26.62
2022-08-08T18:26:29.691Z,26.45
2022-08-08T18:28:57.622Z,26.25
2022-08-08T18:31:28.418Z,26.08
2022-08-08T18:34:11.883Z,25.92
2022-08-08T18:36:41.621Z,25.80
2022-08-08T18:39:27.269Z,25.55
2022-08-08T18:41:59.915Z,25.35
2022-08-08T18:44:33.167Z,25.18
2022-08-08T18:47:04.022Z,24.96
2022-08-08T18:49:32.640Z,24.74
2022-08-08T18:52:22.843Z,24.51
2022-08-08T18:54:59.683Z,24.39
2022-08-08T18:57:29.247Z,24.30
2022-08-08T18:59:58.830Z,24.16
2022-08-08T19:02:29.930Z,24.05
2022-08-08T19:04:56.852Z,23.89
2022-08-08T19:07:25.531Z,23.76
2022-08-08T19:10:14.485Z,23.63
2022-08-08T19:12:44.467Z,23.60
2022-08-08T19:15:16.729Z,23.48
2022-08-08T19:18:32.078Z,23.49
2022-08-08T19:20:39.230Z,23.32
2022-08-08T19:23:06.837Z,23.22
2022-08-08T19:26:27.062Z,23.12
2022-08-08T19:28:23.566Z,23.02
2022-08-08T19:31:03.875Z,22.91
2022-08-08T19:33:51.777Z,22.88
2022-08-08T19:36:27.729Z,22.87
2022-08-08T19:38:55.907Z,22.75
2022-08-08T19:41:27.466Z,22.70
2022-08-08T19:44:03.323Z,22.73
2022-08-08T19:46:33.196Z,22.63
2022-08-08T19:49:01.260Z,22.63
2022-08-08T19:51:34.015Z,22.48
2022-08-08T19:54:04.986Z,22.47
2022-08-08T19:56:40.276Z,22.36
2022-08-08T19:59:09.660Z,22.16
2022-08-08T20:02:01.450Z,22.03
2022-08-08T20:04:23.702Z,21.92
2022-08-08T20:06:50.985Z,21.88
2022-08-08T20:09:22.811Z,21.82
2022-08-08T20:11:50.680Z,21.76
2022-08-08T20:14:33.653Z,21.68
2022-08-08T20:17:04.680Z,21.60
2022-08-08T20:19:33.479Z,21.55
2022-08-08T20:22:05.000Z,21.46
2022-08-08T20:24:39.608Z,21.33
2022-08-08T20:27:10.626Z,21.19
2022-08-08T20:30:00.224Z,21.00
2022-08-08T20:32:28.419Z,20.82
2022-08-08T20:35:01.177Z,20.74
2022-08-08T20:37:47.079Z,20.56
2022-08-08T20:40:16.608Z,20.43
2022-08-08T20:42:54.133Z,20.33
2022-08-08T20:45:44.703Z,20.28
2022-08-08T20:48:09.280Z,20.06
2022-08-08T20:50:35.819Z,20.00
2022-08-08T20:53:03.739Z,19.87
2022-08-08T20:55:35.905Z,19.75
2022-08-08T20:58:13.722Z,19.76
2022-08-08T21:00:42.445Z,19.74
2022-08-08T21:03:16.725Z,19.72
2022-08-08T21:05:49.142Z,19.76
2022-08-08T21:08:36.653Z,19.76
2022-08-08T21:11:12.196Z,19.75
2022-08-08T21:13:41.042Z,19.70
2022-08-08T21:16:18.092Z,19.64
2022-08-08T21:18:48.314Z,19.60
2022-08-08T21:21:20.606Z,19.49
2022-08-08T21:24:22.287Z,19.39
2022-08-08T21:26:53.471Z,19.31
2022-08-08T21:29:21.701Z,19.23
2022-08-08T21:32:19.341Z,19.02
2022-08-08T21:34:56.757Z,18.89
2022-08-08T21:37:53.040Z,18.70
2022-08-08T21:40:11.506Z,18.52
2022-08-08T21:42:39.371Z,18.44
2022-08-08T21:45:21.261Z,18.24
2022-08-08T21:48:05.441Z,18.16
2022-08-08T21:50:41.986Z,18.09
2022-08-08T21:54:36.225Z,18.07
2022-08-08T21:56:19.397Z,18.09
2022-08-08T21:58:42.628Z,18.09
2022-08-08T22:01:39.275Z,18.01
2022-08-08T22:03:58.139Z,17.75
2022-08-08T22:06:31.189Z,17.62
2022-08-08T22:09:00.143Z,17.85
2022-08-08T22:11:59.173Z,18.00
2022-08-08T22:14:17.467Z,18.08
2022-08-08T22:16:44.561Z,18.08
2022-08-08T22:19:16.283Z,18.10
2022-08-08T22:21:43.202Z,18.07
2022-08-08T22:24:12.191Z,18.07
2022-08-08T22:27:01.363Z,17.93
2022-08-08T22:29:59.242Z,17.97
2022-08-08T22:32:19.436Z,17.75
2022-08-08T22:34:50.940Z,17.72
2022-08-08T22:37:49.455Z,17.62
2022-08-08T22:40:11.633Z,17.46
2022-08-08T22:42:47.067Z,17.36
2022-08-08T22:45:15.419Z,17.27
2022-08-08T22:47:49.105Z,17.22
2022-08-08T22:50:25.077Z,17.19
2022-08-08T22:53:24.137Z,16.97
2022-08-08T22:55:59.687Z,16.90
2022-08-08T22:58:30.928Z,17.00
2022-08-08T23:00:59.731Z,17.01
2022-08-08T23:03:34.383Z,16.95
2022-08-08T23:06:15.910Z,16.72
2022-08-08T23:08:54.605Z,16.65
2022-08-08T23:12:17.254Z,16.51
2022-08-08T23:14:11.592Z,16.47
2022-08-08T23:16:43.555Z,16.43
2022-08-08T23:19:10.946Z,16.43
2022-08-08T23:21:39.152Z,16.45
2022-08-08T23:24:06.689Z,16.49
2022-08-08T23:26:33.967Z,16.58
2022-08-08T23:29:01.423Z,16.42
2022-08-08T23:31:27.883Z,16.29
2022-08-08T23:34:17.660Z,16.30
2022-08-08T23:36:43.602Z,16.22
2022-08-08T23:39:11.500Z,16.22
2022-08-08T23:41:46.300Z,16.20
2022-08-08T23:44:14.161Z,16.13
2022-08-08T23:49:06.766Z,16.12
2022-08-08T23:49:28.257Z,16.11
2022-08-08T23:52:05.544Z,16.03
2022-08-08T23:54:43.209Z,15.93
2022-08-08T23:57:27.495Z,15.77
